Time;durP1;ratioP1;P1;durP2;ratioP2;P2;SDS_P1;SDS_P2;PMS_P1;PMS_P2;Temp;Humidity;BMP_temperature;BMP_pressure;BME280_temperature;BME280_humidity;BME280_pressure;Samples;Min_cycle;Max_cycle;Signal;HPM_P1;HPM_P2
2022/07/23 00:01:47;;;;;;;21.02;12.10;;;;;;;;;;6320745;22;20625;-90
2022/07/23 00:04:54;;;;;;;16.48;11.27;;;;;;;;;;6302438;22;20255;-91
2022/07/23 00:07:59;;;;;;;18.90;11.20;;;;;;;;;;6301648;22;20169;-90
2022/07/23 00:11:05;;;;;;;18.92;12.23;;;;;;;;;;6302314;22;20242;-90
2022/07/23 00:14:10;;;;;;;18.20;11.20;;;;;;;;;;6319420;22;20176;-90
2022/07/23 00:17:15;;;;;;;17.73;10.63;;;;;;;;;;6299319;22;20188;-90
2022/07/23 00:20:23;;;;;;;17.67;10.48;;;;;;;;;;6300067;22;20165;-89
2022/07/23 00:23:29;;;;;;;20.55;11.48;;;;;;;;;;6318066;22;20624;-91
2022/07/23 00:26:34;;;;;;;21.25;12.23;;;;;;;;;;6301671;22;20184;-88
2022/07/23 00:29:39;;;;;;;16.55;12.32;;;;;;;;;;6303133;22;20507;-88
2022/07/23 00:32:48;;;;;;;22.10;12.27;;;;;;;;;;6321450;22;20250;-89
2022/07/23 00:35:55;;;;;;;20.42;11.65;;;;;;;;;;6305141;22;20608;-89
2022/07/23 00:39:00;;;;;;;19.70;12.25;;;;;;;;;;6303580;22;20192;-90
2022/07/23 00:42:05;;;;;;;20.77;12.48;;;;;;;;;;6303587;22;20172;-89
2022/07/23 00:45:10;;;;;;;21.92;12.68;;;;;;;;;;6302487;22;20181;-90
2022/07/23 00:48:15;;;;;;;21.17;12.25;;;;;;;;;;6302077;22;20280;-91
2022/07/23 00:51:22;;;;;;;20.27;11.57;;;;;;;;;;6301704;22;20173;-90
2022/07/23 00:54:28;;;;;;;18.42;11.95;;;;;;;;;;6302810;22;20169;-90
2022/07/23 00:57:34;;;;;;;17.35;11.00;;;;;;;;;;6320252;22;20220;-88
2022/07/23 01:00:39;;;;;;;14.55;11.25;;;;;;;;;;6318611;22;20211;-90
2022/07/23 01:03:44;;;;;;;19.38;11.68;;;;;;;;;;6299673;22;20184;-90
2022/07/23 01:06:55;;;;;;;17.77;12.13;;;;;;;;;;6301061;22;20238;-90
2022/07/23 01:10:00;;;;;;;15.70;11.77;;;;;;;;;;6302247;22;20176;-91
2022/07/23 01:13:06;;;;;;;18.38;11.52;;;;;;;;;;6321324;22;20237;-89
2022/07/23 01:16:11;;;;;;;15.88;11.05;;;;;;;;;;6302683;22;20161;-90
2022/07/23 01:19:17;;;;;;;16.05;10.93;;;;;;;;;;6299807;22;20192;-91
2022/07/23 01:22:25;;;;;;;16.23;11.93;;;;;;;;;;6301473;22;20165;-89
2022/07/23 01:25:32;;;;;;;16.92;11.77;;;;;;;;;;6300982;22;20229;-88
2022/07/23 01:28:40;;;;;;;22.05;12.00;;;;;;;;;;6300443;22;20161;-90
2022/07/23 01:31:46;;;;;;;17.20;11.95;;;;;;;;;;6300915;22;20577;-89
2022/07/23 01:34:51;;;;;;;20.45;11.98;;;;;;;;;;6302159;22;20169;-90
2022/07/23 01:37:56;;;;;;;18.38;12.23;;;;;;;;;;6302344;22;20820;-90
2022/07/23 01:41:03;;;;;;;21.65;12.75;;;;;;;;;;6300721;22;20643;-90
2022/07/23 01:44:10;;;;;;;18.65;12.52;;;;;;;;;;6301008;22;20157;-89
2022/07/23 01:47:17;;;;;;;15.43;11.43;;;;;;;;;;6319290;22;20536;-89
2022/07/23 01:50:23;;;;;;;18.05;11.95;;;;;;;;;;6299155;22;20165;-89
2022/07/23 01:53:43;;;;;;;17.25;11.77;;;;;;;;;;6318734;22;20196;-90
2022/07/23 01:56:50;;;;;;;22.05;11.90;;;;;;;;;;6317409;22;20176;-91
2022/07/23 01:59:55;;;;;;;21.50;12.10;;;;;;;;;;6299405;22;20193;-90
2022/07/23 02:03:01;;;;;;;18.63;12.40;;;;;;;;;;6298661;22;20176;-90
2022/07/23 02:06:07;;;;;;;17.80;12.75;;;;;;;;;;6318117;22;20169;-90
2022/07/23 02:09:12;;;;;;;19.48;11.60;;;;;;;;;;6300944;22;20200;-88
2022/07/23 02:12:19;;;;;;;18.83;12.15;;;;;;;;;;6299923;22;20173;-89
2022/07/23 02:15:24;;;;;;;19.30;12.20;;;;;;;;;;6300090;22;20166;-89
2022/07/23 02:18:29;;;;;;;16.20;11.75;;;;;;;;;;6319389;22;20269;-90
2022/07/23 02:21:34;;;;;;;20.75;12.57;;;;;;;;;;6318716;22;20176;-91
2022/07/23 02:24:39;;;;;;;17.55;11.90;;;;;;;;;;6300560;22;20209;-90
2022/07/23 02:27:45;;;;;;;18.40;11.60;;;;;;;;;;6298836;22;20496;-91
2022/07/23 02:30:51;;;;;;;15.02;10.68;;;;;;;;;;6301135;22;20169;-90
2022/07/23 02:33:56;;;;;;;16.02;11.95;;;;;;;;;;6305542;22;20156;-91
2022/07/23 02:37:02;;;;;;;18.08;12.23;;;;;;;;;;6320055;22;20336;-92
2022/07/23 02:40:11;;;;;;;19.38;12.63;;;;;;;;;;6321382;22;20232;-89
2022/07/23 02:43:19;;;;;;;19.40;11.82;;;;;;;;;;6301340;22;20731;-90
2022/07/23 02:46:26;;;;;;;17.20;11.95;;;;;;;;;;6303528;22;20686;-91
2022/07/23 02:49:32;;;;;;;18.88;11.73;;;;;;;;;;6305077;22;20205;-90
2022/07/23 02:52:39;;;;;;;17.10;11.23;;;;;;;;;;6321207;22;20173;-90
2022/07/23 02:55:48;;;;;;;19.02;11.25;;;;;;;;;;6304291;22;20181;-90
2022/07/23 02:58:55;;;;;;;17.42;10.95;;;;;;;;;;6302772;22;20288;-89
2022/07/23 03:02:00;;;;;;;19.55;11.38;;;;;;;;;;6322255;22;20178;-88
2022/07/23 03:05:08;;;;;;;16.02;10.90;;;;;;;;;;6302757;22;20173;-91
2022/07/23 03:08:13;;;;;;;15.50;10.63;;;;;;;;;;6305678;22;20171;-90
2022/07/23 03:11:21;;;;;;;17.25;10.77;;;;;;;;;;6304449;22;20177;-91
2022/07/23 03:14:29;;;;;;;17.58;11.38;;;;;;;;;;6303036;22;20173;-90
2022/07/23 03:17:36;;;;;;;21.73;11.63;;;;;;;;;;6303602;22;20173;-91
2022/07/23 03:20:41;;;;;;;17.60;11.30;;;;;;;;;;6303427;22;20165;-90
2022/07/23 03:23:48;;;;;;;16.42;10.85;;;;;;;;;;6304317;22;20221;-90
2022/07/23 03:26:53;;;;;;;18.23;10.65;;;;;;;;;;6321276;22;20164;-89
2022/07/23 03:30:00;;;;;;;15.30;11.07;;;;;;;;;;6302915;22;20204;-88
2022/07/23 03:33:06;;;;;;;16.67;11.18;;;;;;;;;;6322052;22;20160;-89
2022/07/23 03:36:12;;;;;;;14.80;11.32;;;;;;;;;;6301875;22;20188;-91
2022/07/23 03:39:20;;;;;;;16.77;11.52;;;;;;;;;;6301250;22;20204;-90
2022/07/23 03:42:28;;;;;;;19.00;11.77;;;;;;;;;;6301062;22;20184;-90
2022/07/23 03:45:39;;;;;;;17.42;11.27;;;;;;;;;;6318155;22;20165;-89
2022/07/23 03:48:44;;;;;;;18.38;10.65;;;;;;;;;;6301297;22;20651;-88
2022/07/23 03:51:49;;;;;;;18.08;11.73;;;;;;;;;;6321203;22;20239;-90
2022/07/23 03:54:54;;;;;;;19.55;12.20;;;;;;;;;;6303166;22;20192;-89
2022/07/23 03:58:02;;;;;;;20.25;12.75;;;;;;;;;;6302541;22;20215;-92
2022/07/23 04:01:08;;;;;;;22.98;12.60;;;;;;;;;;6301261;22;20172;-90
2022/07/23 04:04:14;;;;;;;23.65;13.68;;;;;;;;;;6318275;22;20165;-89
2022/07/23 04:07:21;;;;;;;20.65;13.77;;;;;;;;;;6303313;22;20153;-90
2022/07/23 04:10:26;;;;;;;24.75;14.05;;;;;;;;;;6303622;22;20192;-89
2022/07/23 04:13:32;;;;;;;22.73;13.50;;;;;;;;;;6303629;22;20616;-90
2022/07/23 04:16:39;;;;;;;23.33;13.40;;;;;;;;;;6301835;22;20173;-90
2022/07/23 04:19:45;;;;;;;22.35;13.82;;;;;;;;;;6300427;22;20195;-90
2022/07/23 04:22:53;;;;;;;21.90;13.07;;;;;;;;;;6319684;22;20169;-91
2022/07/23 04:25:59;;;;;;;17.58;12.52;;;;;;;;;;6300732;22;20173;-90
2022/07/23 04:29:04;;;;;;;18.90;12.77;;;;;;;;;;6318722;22;20209;-89
2022/07/23 04:32:11;;;;;;;17.17;12.20;;;;;;;;;;6300788;22;20208;-89
2022/07/23 04:35:16;;;;;;;17.02;11.77;;;;;;;;;;6319899;22;20259;-89
2022/07/23 04:38:21;;;;;;;16.65;12.07;;;;;;;;;;6320027;22;20599;-89
2022/07/23 04:41:29;;;;;;;16.00;11.88;;;;;;;;;;6323091;22;20264;-90
2022/07/23 04:48:56;;;;;;;15.50;11.65;;;;;;;;;;6323523;22;20142;-90
2022/07/23 04:52:10;;;;;;;17.15;12.55;;;;;;;;;;6305605;22;20227;-90
2022/07/23 04:55:16;;;;;;;19.70;12.23;;;;;;;;;;6322800;22;20165;-90
2022/07/23 04:58:22;;;;;;;22.58;12.43;;;;;;;;;;6302508;22;20287;-90
2022/07/23 05:01:27;;;;;;;21.23;13.00;;;;;;;;;;6322127;22;20195;-91
2022/07/23 05:04:34;;;;;;;18.58;12.10;;;;;;;;;;6320826;22;20152;-91
2022/07/23 05:07:40;;;;;;;18.98;12.15;;;;;;;;;;6320681;22;20161;-91
2022/07/23 05:10:45;;;;;;;19.05;12.05;;;;;;;;;;6321163;22;20193;-91
2022/07/23 05:13:51;;;;;;;18.50;12.20;;;;;;;;;;6300221;22;20211;-90
2022/07/23 05:16:58;;;;;;;18.55;11.50;;;;;;;;;;6301290;22;20149;-90
2022/07/23 05:20:07;;;;;;;17.23;11.63;;;;;;;;;;6300491;22;20172;-91
2022/07/23 05:23:13;;;;;;;19.27;12.93;;;;;;;;;;6303258;22;20149;-89
2022/07/23 05:26:19;;;;;;;21.27;12.55;;;;;;;;;;6303212;22;20165;-90
2022/07/23 05:29:28;;;;;;;19.65;12.88;;;;;;;;;;6302814;22;20687;-90
2022/07/23 05:32:33;;;;;;;22.65;13.15;;;;;;;;;;6320946;22;20176;-89
2022/07/23 05:35:48;;;;;;;21.65;13.40;;;;;;;;;;6320876;22;20172;-89
2022/07/23 05:39:06;;;;;;;18.15;12.13;;;;;;;;;;6319337;22;20185;-89
2022/07/23 05:42:15;;;;;;;25.98;13.10;;;;;;;;;;6301010;22;20220;-89
2022/07/23 05:45:29;;;;;;;20.85;12.68;;;;;;;;;;6301868;22;20164;-87
2022/07/23 05:48:34;;;;;;;19.92;12.23;;;;;;;;;;6302353;22;20169;-89
2022/07/23 05:52:04;;;;;;;17.85;11.95;;;;;;;;;;6321238;22;20162;-89
2022/07/23 05:55:32;;;;;;;18.17;10.73;;;;;;;;;;6320436;22;20220;-88
2022/07/23 05:58:37;;;;;;;17.58;11.02;;;;;;;;;;6302358;22;20179;-88
2022/07/23 06:01:44;;;;;;;15.23;9.65;;;;;;;;;;6322030;22;20173;-89
2022/07/23 06:04:50;;;;;;;17.27;10.57;;;;;;;;;;6305044;22;20184;-88
2022/07/23 06:08:10;;;;;;;16.40;10.52;;;;;;;;;;6305225;22;20169;-90
2022/07/23 06:11:15;;;;;;;16.92;10.02;;;;;;;;;;6320847;22;20400;-91
2022/07/23 06:14:20;;;;;;;16.20;10.30;;;;;;;;;;6305283;22;20161;-90
2022/07/23 06:17:30;;;;;;;16.58;10.00;;;;;;;;;;6303007;22;20623;-91
2022/07/23 06:20:35;;;;;;;15.70;10.35;;;;;;;;;;6319915;22;20280;-90
2022/07/23 06:23:42;;;;;;;17.02;10.27;;;;;;;;;;6301605;22;20164;-90
2022/07/23 06:26:48;;;;;;;13.23;9.50;;;;;;;;;;6301241;22;20164;-90
2022/07/23 06:29:53;;;;;;;16.50;8.85;;;;;;;;;;6301242;22;20223;-89
2022/07/23 06:32:58;;;;;;;17.65;9.45;;;;;;;;;;6303677;22;20800;-89
2022/07/23 06:36:03;;;;;;;15.43;9.10;;;;;;;;;;6303810;22;20499;-90
2022/07/23 06:39:10;;;;;;;16.45;9.23;;;;;;;;;;6322573;22;20197;-89
2022/07/23 06:42:15;;;;;;;16.77;9.18;;;;;;;;;;6300869;22;20170;-89
2022/07/23 06:45:24;;;;;;;12.63;8.93;;;;;;;;;;6303050;22;20148;-89
2022/07/23 06:48:34;;;;;;;13.15;8.48;;;;;;;;;;6303899;22;20189;-90
2022/07/23 06:51:39;;;;;;;15.23;8.40;;;;;;;;;;6302969;22;20193;-91
2022/07/23 06:54:47;;;;;;;11.93;7.97;;;;;;;;;;6302148;22;20172;-90
2022/07/23 06:57:53;;;;;;;12.75;8.25;;;;;;;;;;6301375;22;20168;-90
2022/07/23 07:00:58;;;;;;;12.98;8.27;;;;;;;;;;6303536;22;20169;-88
2022/07/23 07:04:06;;;;;;;18.88;11.02;;;;;;;;;;6303631;22;20208;-88
2022/07/23 07:07:12;;;;;;;15.52;8.90;;;;;;;;;;6304240;22;20259;-90
2022/07/23 07:10:19;;;;;;;11.60;8.23;;;;;;;;;;6305637;22;20188;-90
2022/07/23 07:13:27;;;;;;;14.38;8.50;;;;;;;;;;6306311;22;20166;-90
2022/07/23 07:16:32;;;;;;;18.13;7.30;;;;;;;;;;6302832;22;20172;-90
2022/07/23 07:19:38;;;;;;;12.40;8.10;;;;;;;;;;6303925;22;20241;-90
2022/07/23 07:22:47;;;;;;;12.20;7.68;;;;;;;;;;6323655;22;20188;-90
2022/07/23 07:25:54;;;;;;;15.65;8.27;;;;;;;;;;6305754;22;20164;-91
2022/07/23 07:28:59;;;;;;;12.25;8.07;;;;;;;;;;6310989;22;20506;-90
2022/07/23 07:32:06;;;;;;;18.75;8.30;;;;;;;;;;6312659;22;20224;-91
2022/07/23 07:35:11;;;;;;;18.67;8.80;;;;;;;;;;6308516;22;20185;-90
2022/07/23 07:38:17;;;;;;;13.32;9.23;;;;;;;;;;6302549;22;20212;-90
2022/07/23 07:41:26;;;;;;;17.20;9.80;;;;;;;;;;6303250;22;20568;-91
2022/07/23 07:48:48;;;;;;;15.27;9.93;;;;;;;;;;6322358;22;20172;-91
2022/07/23 07:51:54;;;;;;;16.27;10.50;;;;;;;;;;6302164;22;20180;-91
2022/07/23 07:55:01;;;;;;;15.90;11.32;;;;;;;;;;6301999;22;20168;-90
2022/07/23 07:58:11;;;;;;;17.33;11.18;;;;;;;;;;6303243;22;20173;-91
2022/07/23 08:01:19;;;;;;;21.45;11.13;;;;;;;;;;6305730;22;20176;-89
2022/07/23 08:04:25;;;;;;;13.10;9.52;;;;;;;;;;6325241;22;20177;-89
2022/07/23 08:07:31;;;;;;;16.65;9.60;;;;;;;;;;6303503;22;20299;-92
2022/07/23 08:10:37;;;;;;;14.43;7.97;;;;;;;;;;6302426;22;20201;-91
2022/07/23 08:13:44;;;;;;;11.93;7.15;;;;;;;;;;6301657;22;20176;-90
2022/07/23 08:16:50;;;;;;;11.05;7.50;;;;;;;;;;6302475;22;20180;-87
2022/07/23 08:19:55;;;;;;;19.35;7.15;;;;;;;;;;6304282;22;20199;-91
2022/07/23 08:26:21;;;;;;;11.65;7.60;;;;;;;;;;6302887;22;20181;-88
2022/07/23 08:29:29;;;;;;;13.30;8.35;;;;;;;;;;6307339;22;20624;-90
2022/07/23 08:32:36;;;;;;;11.32;5.70;;;;;;;;;;6307815;22;20242;-90
2022/07/23 08:35:46;;;;;;;10.13;5.30;;;;;;;;;;6306231;22;20165;-91
2022/07/23 08:38:55;;;;;;;13.02;4.88;;;;;;;;;;6305867;22;20288;-88
2022/07/23 08:42:00;;;;;;;13.32;6.22;;;;;;;;;;6304094;22;20161;-90
2022/07/23 08:45:20;;;;;;;14.93;5.18;;;;;;;;;;6303226;22;20207;-90
2022/07/23 08:48:27;;;;;;;11.68;5.30;;;;;;;;;;6306561;22;20173;-90
2022/07/23 08:51:32;;;;;;;7.10;4.65;;;;;;;;;;6307565;22;20181;-90
2022/07/23 08:54:38;;;;;;;8.73;5.32;;;;;;;;;;6306073;22;20498;-91
2022/07/23 09:01:05;;;;;;;9.10;4.47;;;;;;;;;;6304266;22;20210;-92
2022/07/23 09:04:12;;;;;;;6.47;4.07;;;;;;;;;;6304358;22;20173;-89
2022/07/23 09:07:24;;;;;;;10.68;4.60;;;;;;;;;;6323960;22;20169;-90
2022/07/23 09:10:34;;;;;;;7.95;4.18;;;;;;;;;;6305434;22;20232;-89
2022/07/23 09:13:43;;;;;;;11.90;4.40;;;;;;;;;;6306209;22;20209;-88
2022/07/23 09:16:50;;;;;;;5.35;3.88;;;;;;;;;;6303633;22;20168;-91
2022/07/23 09:20:11;;;;;;;6.05;3.58;;;;;;;;;;6302959;22;20184;-92
2022/07/23 09:23:16;;;;;;;6.93;4.15;;;;;;;;;;6305398;22;20165;-91
2022/07/23 09:26:24;;;;;;;9.68;4.10;;;;;;;;;;6304087;22;20168;-89
2022/07/23 09:29:29;;;;;;;7.03;3.90;;;;;;;;;;6301536;22;20204;-90
2022/07/23 09:32:36;;;;;;;10.57;4.30;;;;;;;;;;6303114;22;20160;-90
2022/07/23 09:35:46;;;;;;;6.93;4.10;;;;;;;;;;6304630;22;20184;-89
2022/07/23 09:38:52;;;;;;;14.73;4.00;;;;;;;;;;6305984;22;20219;-90
2022/07/23 09:41:58;;;;;;;10.00;4.45;;;;;;;;;;6308289;22;20165;-90
2022/07/23 09:45:04;;;;;;;9.73;4.10;;;;;;;;;;6308440;22;20148;-92
2022/07/23 09:48:19;;;;;;;9.57;4.10;;;;;;;;;;6328286;22;20196;-90
2022/07/23 09:51:36;;;;;;;8.73;4.80;;;;;;;;;;6313993;22;20196;-91
2022/07/23 09:54:42;;;;;;;10.05;4.47;;;;;;;;;;6313901;22;20169;-89
2022/07/23 09:57:52;;;;;;;6.75;3.67;;;;;;;;;;6313330;22;20231;-91
2022/07/23 10:01:04;;;;;;;5.07;3.25;;;;;;;;;;6312573;22;20172;-91
2022/07/23 10:04:12;;;;;;;6.20;4.00;;;;;;;;;;6309610;22;20548;-92
2022/07/23 10:07:41;;;;;;;6.43;3.70;;;;;;;;;;6326889;22;20168;-92
2022/07/23 10:11:08;;;;;;;6.25;3.45;;;;;;;;;;6328504;22;20164;-91
2022/07/23 10:14:24;;;;;;;10.75;3.63;;;;;;;;;;6309479;22;20164;-90
2022/07/23 10:17:35;;;;;;;5.70;3.90;;;;;;;;;;6309639;22;20176;-90
2022/07/23 10:20:42;;;;;;;7.18;4.00;;;;;;;;;;6311583;22;20192;-91
2022/07/23 10:23:51;;;;;;;8.57;3.60;;;;;;;;;;6310454;22;20149;-91
2022/07/23 10:27:01;;;;;;;6.28;3.40;;;;;;;;;;6310817;22;20445;-89
2022/07/23 10:30:08;;;;;;;5.78;3.45;;;;;;;;;;6308298;22;20214;-90
2022/07/23 10:33:22;;;;;;;4.22;3.40;;;;;;;;;;6309959;22;20164;-90
2022/07/23 10:36:34;;;;;;;8.30;3.85;;;;;;;;;;6308454;22;20168;-90
2022/07/23 10:39:40;;;;;;;7.90;4.47;;;;;;;;;;6308969;22;20188;-88
2022/07/23 10:42:48;;;;;;;7.82;5.10;;;;;;;;;;6309999;22;20243;-88
2022/07/23 10:46:32;;;;;;;9.07;4.82;;;;;;;;;;6311566;22;20170;-91
2022/07/23 10:49:37;;;;;;;8.40;5.00;;;;;;;;;;6309376;22;20210;-90
2022/07/23 10:53:04;;;;;;;7.10;4.28;;;;;;;;;;6309610;22;20165;-91
2022/07/23 10:56:09;;;;;;;6.10;4.13;;;;;;;;;;6306800;22;20148;-90
2022/07/23 10:59:15;;;;;;;7.90;4.43;;;;;;;;;;6306825;22;20176;-90
2022/07/23 11:02:23;;;;;;;7.60;4.22;;;;;;;;;;6308113;22;20270;-89
2022/07/23 11:05:43;;;;;;;8.82;4.10;;;;;;;;;;6311921;22;20169;-89
2022/07/23 11:09:10;;;;;;;6.97;4.68;;;;;;;;;;6313423;22;20208;-91
2022/07/23 11:12:35;;;;;;;6.25;4.15;;;;;;;;;;6304939;22;20260;-90
2022/07/23 11:16:05;;;;;;;4.68;3.95;;;;;;;;;;6302461;22;20239;-90
2022/07/23 11:19:13;;;;;;;9.77;4.30;;;;;;;;;;6301708;22;20210;-92
2022/07/23 11:22:35;;;;;;;7.88;4.05;;;;;;;;;;6305705;22;20204;-90
2022/07/23 11:25:44;;;;;;;6.97;4.22;;;;;;;;;;6304078;22;20227;-91
2022/07/23 11:28:50;;;;;;;9.57;4.25;;;;;;;;;;6305779;22;20167;-90
2022/07/23 11:31:56;;;;;;;5.47;4.05;;;;;;;;;;6304746;22;20168;-93
2022/07/23 11:35:02;;;;;;;10.65;5.00;;;;;;;;;;6305781;22;20167;-92
2022/07/23 11:38:08;;;;;;;10.18;5.70;;;;;;;;;;6304052;22;20172;-90
2022/07/23 11:41:15;;;;;;;6.70;4.10;;;;;;;;;;6304138;22;20250;-93
2022/07/23 11:44:34;;;;;;;6.60;4.68;;;;;;;;;;6302461;22;20173;-90
2022/07/23 11:47:40;;;;;;;7.70;4.40;;;;;;;;;;6303407;22;20244;-91
2022/07/23 11:50:46;;;;;;;7.50;3.72;;;;;;;;;;6306651;22;20200;-92
2022/07/23 11:53:51;;;;;;;4.85;4.07;;;;;;;;;;6307627;22;20595;-92
2022/07/23 11:57:07;;;;;;;7.05;4.35;;;;;;;;;;6308818;22;20207;-91
2022/07/23 12:00:13;;;;;;;6.90;4.35;;;;;;;;;;6306629;22;20228;-91
2022/07/23 12:03:19;;;;;;;6.00;4.50;;;;;;;;;;6306388;22;20149;-92
2022/07/23 12:06:24;;;;;;;6.43;4.30;;;;;;;;;;6307859;22;20153;-90
2022/07/23 12:09:30;;;;;;;5.70;4.30;;;;;;;;;;6306706;22;20175;-90
2022/07/23 12:12:46;;;;;;;9.02;4.35;;;;;;;;;;6304924;22;20179;-90
2022/07/23 12:15:52;;;;;;;9.18;4.78;;;;;;;;;;6306951;22;20160;-91
2022/07/23 12:18:58;;;;;;;8.55;4.57;;;;;;;;;;6306688;22;20190;-91
2022/07/23 12:22:09;;;;;;;6.53;4.30;;;;;;;;;;6310877;22;20207;-92
2022/07/23 12:25:20;;;;;;;14.55;4.47;;;;;;;;;;6296873;22;20183;-90
2022/07/23 12:28:32;;;;;;;6.18;4.45;;;;;;;;;;6311110;22;20176;-92
2022/07/23 12:31:40;;;;;;;5.68;4.30;;;;;;;;;;6310318;22;20176;-91
2022/07/23 12:34:46;;;;;;;7.25;4.40;;;;;;;;;;6310346;22;20165;-92
2022/07/23 12:38:08;;;;;;;11.18;4.95;;;;;;;;;;6311280;22;20169;-93
2022/07/23 12:41:15;;;;;;;6.82;4.45;;;;;;;;;;6310919;22;20191;-92
2022/07/23 12:44:52;;;;;;;7.70;4.47;;;;;;;;;;6310325;22;20267;-92
2022/07/23 12:48:03;;;;;;;10.40;4.10;;;;;;;;;;6307610;22;20161;-92
2022/07/23 12:51:09;;;;;;;7.88;4.40;;;;;;;;;;6309791;22;20193;-91
2022/07/23 12:54:15;;;;;;;5.88;3.92;;;;;;;;;;6308217;22;20164;-92
2022/07/23 12:57:22;;;;;;;5.72;4.00;;;;;;;;;;6307599;22;20155;-91
2022/07/23 13:00:35;;;;;;;6.05;4.53;;;;;;;;;;6308289;22;20238;-93
2022/07/23 13:07:03;;;;;;;6.47;4.30;;;;;;;;;;6306753;22;20193;-89
2022/07/23 13:10:08;;;;;;;5.97;3.90;;;;;;;;;;6305337;22;20164;-90
2022/07/23 13:13:14;;;;;;;6.57;4.25;;;;;;;;;;6305075;22;20164;-91
2022/07/23 13:16:20;;;;;;;6.15;4.40;;;;;;;;;;6306258;22;20168;-92
2022/07/23 13:19:28;;;;;;;5.93;4.40;;;;;;;;;;6305126;22;20165;-92
2022/07/23 13:22:34;;;;;;;4.75;3.78;;;;;;;;;;6306881;22;20227;-91
2022/07/23 13:25:39;;;;;;;6.82;3.88;;;;;;;;;;6305409;22;20615;-92
2022/07/23 13:28:45;;;;;;;9.40;4.03;;;;;;;;;;6306140;22;20228;-93
2022/07/23 13:31:50;;;;;;;6.05;4.32;;;;;;;;;;6303840;22;20164;-92
2022/07/23 13:34:57;;;;;;;8.55;5.03;;;;;;;;;;6305025;22;20266;-92
2022/07/23 13:38:02;;;;;;;7.38;4.28;;;;;;;;;;6305082;22;20187;-90
2022/07/23 13:41:08;;;;;;;5.93;4.20;;;;;;;;;;6307059;22;20199;-91
2022/07/23 13:44:13;;;;;;;4.50;3.95;;;;;;;;;;6305083;22;20165;-90
2022/07/23 13:47:19;;;;;;;6.10;4.13;;;;;;;;;;6307399;22;20160;-91
2022/07/23 13:50:26;;;;;;;10.27;4.85;;;;;;;;;;6307728;22;20244;-90
2022/07/23 13:53:31;;;;;;;6.38;4.40;;;;;;;;;;6307850;22;20148;-90
2022/07/23 13:56:37;;;;;;;11.77;5.20;;;;;;;;;;6306750;22;20639;-92
2022/07/23 13:59:42;;;;;;;5.03;4.18;;;;;;;;;;6307700;22;20148;-91
2022/07/23 14:02:48;;;;;;;6.13;4.45;;;;;;;;;;6307044;22;20207;-91
2022/07/23 14:06:00;;;;;;;6.38;5.00;;;;;;;;;;6307995;22;20172;-89
2022/07/23 14:09:05;;;;;;;9.20;4.95;;;;;;;;;;6309025;22;20160;-92
2022/07/23 14:12:10;;;;;;;9.70;5.20;;;;;;;;;;6308721;22;20239;-91
2022/07/23 14:15:16;;;;;;;10.65;4.70;;;;;;;;;;6309423;22;20169;-91
2022/07/23 14:18:22;;;;;;;7.47;4.53;;;;;;;;;;6307614;22;20207;-91
2022/07/23 14:21:30;;;;;;;10.43;4.93;;;;;;;;;;6306463;22;20173;-90
2022/07/23 14:24:37;;;;;;;7.47;4.90;;;;;;;;;;6309219;22;20156;-90
2022/07/23 14:27:47;;;;;;;8.02;4.95;;;;;;;;;;6309857;22;20233;-90
2022/07/23 14:30:53;;;;;;;8.98;5.28;;;;;;;;;;6308344;22;20160;-92
2022/07/23 14:33:58;;;;;;;10.07;5.50;;;;;;;;;;6309583;22;20513;-89
2022/07/23 14:37:05;;;;;;;6.88;4.97;;;;;;;;;;6307825;22;20188;-91
2022/07/23 14:40:11;;;;;;;7.88;5.30;;;;;;;;;;6308193;22;20192;-90
2022/07/23 14:43:17;;;;;;;10.18;5.05;;;;;;;;;;6307787;22;20560;-90
2022/07/23 14:46:23;;;;;;;6.90;5.00;;;;;;;;;;6309306;22;20589;-92
2022/07/23 14:52:49;;;;;;;7.60;4.80;;;;;;;;;;6307800;22;20211;-90
2022/07/23 14:55:56;;;;;;;8.02;4.72;;;;;;;;;;6309109;22;20176;-91
2022/07/23 14:59:02;;;;;;;12.70;4.90;;;;;;;;;;6309468;22;20168;-90
2022/07/23 15:02:07;;;;;;;7.03;4.90;;;;;;;;;;6309372;22;20188;-91
2022/07/23 15:05:13;;;;;;;9.68;4.97;;;;;;;;;;6309676;22;20211;-93
2022/07/23 15:08:20;;;;;;;8.48;4.78;;;;;;;;;;6310047;22;20206;-89
2022/07/23 15:11:26;;;;;;;7.22;4.45;;;;;;;;;;6308446;22;20171;-91
2022/07/23 15:14:31;;;;;;;8.23;5.03;;;;;;;;;;6307048;22;20216;-90
2022/07/23 15:17:37;;;;;;;8.45;4.90;;;;;;;;;;6310191;22;20873;-91
2022/07/23 15:20:43;;;;;;;9.27;6.03;;;;;;;;;;6308250;22;20165;-90
2022/07/23 15:23:52;;;;;;;8.45;5.60;;;;;;;;;;6308186;22;20188;-91
2022/07/23 15:26:57;;;;;;;8.50;5.68;;;;;;;;;;6309016;22;20264;-90
2022/07/23 15:30:03;;;;;;;8.75;5.35;;;;;;;;;;6308305;22;20209;-90
2022/07/23 15:33:08;;;;;;;8.95;5.10;;;;;;;;;;6308070;22;20161;-91
2022/07/23 15:36:14;;;;;;;12.00;5.70;;;;;;;;;;6309781;22;20165;-90
2022/07/23 15:39:22;;;;;;;10.65;5.30;;;;;;;;;;6307981;22;20212;-91
2022/07/23 15:42:34;;;;;;;8.15;5.47;;;;;;;;;;6324509;22;20212;-90
2022/07/23 15:46:03;;;;;;;9.52;5.30;;;;;;;;;;6289534;22;20161;-90
2022/07/23 15:49:09;;;;;;;7.05;4.80;;;;;;;;;;6306294;22;20204;-90
2022/07/23 15:52:14;;;;;;;8.10;4.70;;;;;;;;;;6306283;22;20660;-91
2022/07/23 15:55:25;;;;;;;6.28;4.70;;;;;;;;;;6308741;22;20161;-91
2022/07/23 15:58:31;;;;;;;7.85;4.63;;;;;;;;;;6308547;22;20156;-89
2022/07/23 16:01:37;;;;;;;5.80;4.20;;;;;;;;;;6309779;22;20165;-91
2022/07/23 16:04:43;;;;;;;10.25;4.63;;;;;;;;;;6309501;22;20257;-89
2022/07/23 16:07:51;;;;;;;10.73;5.22;;;;;;;;;;6308452;22;20480;-91
2022/07/23 22:26:33;;;;;;;7.25;4.82;;;;;;;;;;6323359;22;20217;-91
2022/07/23 22:29:42;;;;;;;5.80;3.72;;;;;;;;;;6327781;22;20154;-89
2022/07/23 22:32:48;;;;;;;10.00;4.45;;;;;;;;;;6309622;22;20160;-90
2022/07/23 23:35:11;;;;;;;8.27;4.55;;;;;;;;;;6138266;23;20193;-90
2022/07/23 23:38:16;;;;;;;8.18;4.75;;;;;;;;;;6141507;23;20173;-91
2022/07/23 23:41:23;;;;;;;9.82;4.45;;;;;;;;;;6137008;23;20248;-89
2022/07/23 23:44:29;;;;;;;8.43;4.45;;;;;;;;;;6208207;23;20200;-91
2022/07/23 23:47:34;;;;;;;11.02;4.78;;;;;;;;;;6137264;23;20480;-91
2022/07/23 23:50:41;;;;;;;12.57;4.50;;;;;;;;;;6137457;23;20189;-90
2022/07/23 23:53:47;;;;;;;12.10;4.53;;;;;;;;;;6138637;23;20161;-90
2022/07/23 23:56:55;;;;;;;9.70;4.47;;;;;;;;;;6137999;23;20256;-89
